sensor_id;sensor_type;location;lat;lon;timestamp;pressure;altitude;pressure_sealevel;temperature;humidity
75681;BME280;64294;49.176;16.626;2023-11-19T00:00:09;99767.13;;;0.71;100.00
75681;BME280;64294;49.176;16.626;2023-11-19T00:02:39;99770.53;;;0.75;100.00
75681;BME280;64294;49.176;16.626;2023-11-19T00:05:06;99753.63;;;0.82;100.00
75681;BME280;64294;49.176;16.626;2023-11-19T00:07:37;99759.75;;;0.86;100.00
75681;BME280;64294;49.176;16.626;2023-11-19T00:10:15;99757.16;;;0.83;100.00
75681;BME280;64294;49.176;16.626;2023-11-19T00:12:46;99757.59;;;0.90;100.00
75681;BME280;64294;49.176;16.626;2023-11-19T00:15:13;99755.94;;;0.84;100.00
75681;BME280;64294;49.176;16.626;2023-11-19T00:17:39;99760.53;;;0.87;100.00
75681;BME280;64294;49.176;16.626;2023-11-19T00:20:10;99753.47;;;0.86;100.00
75681;BME280;64294;49.176;16.626;2023-11-19T00:22:36;99754.53;;;0.88;100.00
75681;BME280;64294;49.176;16.626;2023-11-19T00:25:02;99764.25;;;0.93;100.00
75681;BME280;64294;49.176;16.626;2023-11-19T00:27:29;99752.53;;;0.89;100.00
75681;BME280;64294;49.176;16.626;2023-11-19T00:29:54;99751.59;;;0.92;100.00
75681;BME280;64294;49.176;16.626;2023-11-19T00:32:19;99758.06;;;0.89;100.00
75681;BME280;64294;49.176;16.626;2023-11-19T00:34:45;99755.94;;;0.93;100.00
75681;BME280;64294;49.176;16.626;2023-11-19T00:37:13;99748.53;;;0.90;100.00
75681;BME280;64294;49.176;16.626;2023-11-19T00:39:38;99753.31;;;0.89;100.00
75681;BME280;64294;49.176;16.626;2023-11-19T00:42:04;99748.53;;;0.90;100.00
75681;BME280;64294;49.176;16.626;2023-11-19T00:44:30;99748.69;;;0.86;100.00
75681;BME280;64294;49.176;16.626;2023-11-19T00:46:55;99747.16;;;0.85;100.00
75681;BME280;64294;49.176;16.626;2023-11-19T00:49:21;99733.03;;;0.83;100.00
75681;BME280;64294;49.176;16.626;2023-11-19T00:51:46;99738.41;;;0.87;100.00
75681;BME280;64294;49.176;16.626;2023-11-19T00:54:12;99737.63;;;0.86;100.00
75681;BME280;64294;49.176;16.626;2023-11-19T00:56:37;99725.31;;;0.87;100.00
75681;BME280;64294;49.176;16.626;2023-11-19T00:59:03;99716.41;;;0.83;100.00
75681;BME280;64294;49.176;16.626;2023-11-19T01:01:32;99722.56;;;0.97;100.00
75681;BME280;64294;49.176;16.626;2023-11-19T01:03:57;99726.88;;;0.98;100.00
75681;BME280;64294;49.176;16.626;2023-11-19T01:06:30;99721.94;;;1.02;100.00
75681;BME280;64294;49.176;16.626;2023-11-19T01:08:56;99719.94;;;1.11;100.00
75681;BME280;64294;49.176;16.626;2023-11-19T01:11:25;99730.69;;;1.09;100.00
75681;BME280;64294;49.176;16.626;2023-11-19T01:13:51;99726.69;;;1.10;100.00
75681;BME280;64294;49.176;16.626;2023-11-19T01:16:18;99725.03;;;1.13;100.00
75681;BME280;64294;49.176;16.626;2023-11-19T01:18:44;99707.47;;;1.07;100.00
75681;BME280;64294;49.176;16.626;2023-11-19T01:21:09;99693.66;;;1.07;100.00
75681;BME280;64294;49.176;16.626;2023-11-19T01:23:35;99688.72;;;1.11;100.00
75681;BME280;64294;49.176;16.626;2023-11-19T01:26:02;99689.19;;;1.00;100.00
75681;BME280;64294;49.176;16.626;2023-11-19T01:28:27;99687.34;;;1.06;100.00
75681;BME280;64294;49.176;16.626;2023-11-19T01:30:53;99682.75;;;1.12;100.00
75681;BME280;64294;49.176;16.626;2023-11-19T01:33:18;99670.44;;;1.04;100.00
75681;BME280;64294;49.176;16.626;2023-11-19T01:35:44;99661.50;;;1.09;100.00
75681;BME280;64294;49.176;16.626;2023-11-19T01:38:09;99651.53;;;1.03;100.00
75681;BME280;64294;49.176;16.626;2023-11-19T01:40:36;99644.44;;;1.02;100.00
75681;BME280;64294;49.176;16.626;2023-11-19T01:43:04;99634.75;;;1.06;100.00
75681;BME280;64294;49.176;16.626;2023-11-19T01:45:30;99633.38;;;1.02;100.00
75681;BME280;64294;49.176;16.626;2023-11-19T01:47:57;99632.78;;;0.98;100.00
75681;BME280;64294;49.176;16.626;2023-11-19T01:50:23;99636.63;;;1.00;100.00
75681;BME280;64294;49.176;16.626;2023-11-19T01:52:53;99635.81;;;1.09;100.00
75681;BME280;64294;49.176;16.626;2023-11-19T01:55:20;99626.91;;;1.05;100.00
75681;BME280;64294;49.176;16.626;2023-11-19T01:57:46;99618.13;;;1.06;100.00
75681;BME280;64294;49.176;16.626;2023-11-19T02:00:13;99613.38;;;1.07;100.00
75681;BME280;64294;49.176;16.626;2023-11-19T02:02:40;99609.06;;;1.15;100.00
75681;BME280;64294;49.176;16.626;2023-11-19T02:05:07;99607.81;;;1.16;100.00
75681;BME280;64294;49.176;16.626;2023-11-19T02:07:33;99611.38;;;1.16;100.00
75681;BME280;64294;49.176;16.626;2023-11-19T02:09:58;99598.13;;;1.20;100.00
75681;BME280;64294;49.176;16.626;2023-11-19T02:12:28;99584.28;;;1.20;100.00
75681;BME280;64294;49.176;16.626;2023-11-19T02:14:54;99580.44;;;1.18;100.00
75681;BME280;64294;49.176;16.626;2023-11-19T02:17:30;99566.91;;;1.20;100.00
75681;BME280;64294;49.176;16.626;2023-11-19T02:19:59;99558.25;;;1.27;100.00
75681;BME280;64294;49.176;16.626;2023-11-19T02:22:25;99554.13;;;1.23;100.00
75681;BME280;64294;49.176;16.626;2023-11-19T02:24:59;99550.13;;;1.24;100.00
75681;BME280;64294;49.176;16.626;2023-11-19T02:29:51;99530.25;;;1.25;100.00
75681;BME280;64294;49.176;16.626;2023-11-19T02:32:17;99526.53;;;1.37;100.00
75681;BME280;64294;49.176;16.626;2023-11-19T02:34:42;99536.09;;;1.27;100.00
75681;BME280;64294;49.176;16.626;2023-11-19T02:37:07;99549.78;;;1.31;100.00
75681;BME280;64294;49.176;16.626;2023-11-19T02:39:33;99541.16;;;1.29;100.00
75681;BME280;64294;49.176;16.626;2023-11-19T02:41:58;99542.09;;;1.26;100.00
75681;BME280;64294;49.176;16.626;2023-11-19T02:44:25;99540.09;;;1.26;100.00
75681;BME280;64294;49.176;16.626;2023-11-19T02:46:53;99546.56;;;1.32;100.00
75681;BME280;64294;49.176;16.626;2023-11-19T02:49:18;99544.84;;;1.35;100.00
75681;BME280;64294;49.176;16.626;2023-11-19T02:51:44;99543.31;;;1.34;100.00
75681;BME280;64294;49.176;16.626;2023-11-19T02:54:09;99556.69;;;1.35;100.00
75681;BME280;64294;49.176;16.626;2023-11-19T02:56:37;99555.44;;;1.36;100.00
75681;BME280;64294;49.176;16.626;2023-11-19T02:59:07;99550.97;;;1.39;100.00
75681;BME280;64294;49.176;16.626;2023-11-19T03:01:52;99554.50;;;1.39;100.00
75681;BME280;64294;49.176;16.626;2023-11-19T03:04:20;99555.09;;;1.43;100.00
75681;BME280;64294;49.176;16.626;2023-11-19T03:06:48;99519.84;;;1.44;100.00
75681;BME280;64294;49.176;16.626;2023-11-19T03:09:13;99504.84;;;1.36;100.00
75681;BME280;64294;49.176;16.626;2023-11-19T03:11:39;99492.53;;;1.37;100.00
75681;BME280;64294;49.176;16.626;2023-11-19T03:14:04;99492.34;;;1.40;100.00
75681;BME280;64294;49.176;16.626;2023-11-19T03:16:29;99481.28;;;1.40;100.00
75681;BME280;64294;49.176;16.626;2023-11-19T03:18:55;99467.06;;;1.47;100.00
75681;BME280;64294;49.176;16.626;2023-11-19T03:21:31;99481.53;;;1.51;100.00
75681;BME280;64294;49.176;16.626;2023-11-19T03:23:57;99492.31;;;1.49;100.00
75681;BME280;64294;49.176;16.626;2023-11-19T03:26:26;99482.44;;;1.48;100.00
75681;BME280;64294;49.176;16.626;2023-11-19T03:28:52;99492.75;;;1.48;100.00
75681;BME280;64294;49.176;16.626;2023-11-19T03:31:18;99489.53;;;1.49;100.00
75681;BME280;64294;49.176;16.626;2023-11-19T03:33:44;99494.75;;;1.47;100.00
75681;BME280;64294;49.176;16.626;2023-11-19T03:36:10;99507.38;;;1.48;100.00
75681;BME280;64294;49.176;16.626;2023-11-19T03:38:35;99510.97;;;1.64;100.00
75681;BME280;64294;49.176;16.626;2023-11-19T03:41:09;99507.63;;;1.60;100.00
75681;BME280;64294;49.176;16.626;2023-11-19T03:43:35;99505.50;;;1.55;100.00
75681;BME280;64294;49.176;16.626;2023-11-19T03:46:00;99502.44;;;1.52;100.00
75681;BME280;64294;49.176;16.626;2023-11-19T03:48:25;99492.59;;;1.51;100.00
75681;BME280;64294;49.176;16.626;2023-11-19T03:50:51;99488.13;;;1.54;100.00
75681;BME280;64294;49.176;16.626;2023-11-19T03:53:16;99485.53;;;1.50;100.00
75681;BME280;64294;49.176;16.626;2023-11-19T03:55:43;99480.56;;;1.55;100.00
75681;BME280;64294;49.176;16.626;2023-11-19T03:58:09;99472.56;;;1.57;100.00
75681;BME280;64294;49.176;16.626;2023-11-19T04:00:34;99469.31;;;1.58;100.00
75681;BME280;64294;49.176;16.626;2023-11-19T04:03:00;99467.81;;;1.48;100.00
75681;BME280;64294;49.176;16.626;2023-11-19T04:05:25;99454.75;;;1.48;100.00
75681;BME280;64294;49.176;16.626;2023-11-19T04:07:51;99450.88;;;1.55;100.00
75681;BME280;64294;49.176;16.626;2023-11-19T04:10:16;99448.81;;;1.41;100.00
75681;BME280;64294;49.176;16.626;2023-11-19T04:12:42;99461.59;;;1.38;100.00
75681;BME280;64294;49.176;16.626;2023-11-19T04:15:08;99450.16;;;1.45;100.00
75681;BME280;64294;49.176;16.626;2023-11-19T04:17:33;99456.47;;;1.46;100.00
75681;BME280;64294;49.176;16.626;2023-11-19T04:20:00;99465.72;;;1.43;100.00
75681;BME280;64294;49.176;16.626;2023-11-19T04:22:25;99465.66;;;1.52;100.00
75681;BME280;64294;49.176;16.626;2023-11-19T04:24:51;99473.06;;;1.46;100.00
75681;BME280;64294;49.176;16.626;2023-11-19T04:27:16;99472.31;;;1.45;100.00
75681;BME280;64294;49.176;16.626;2023-11-19T04:29:42;99469.53;;;1.45;100.00
75681;BME280;64294;49.176;16.626;2023-11-19T04:32:07;99472.50;;;1.42;100.00
75681;BME280;64294;49.176;16.626;2023-11-19T04:34:33;99466.19;;;1.41;100.00
75681;BME280;64294;49.176;16.626;2023-11-19T04:36:58;99459.66;;;1.54;100.00
75681;BME280;64294;49.176;16.626;2023-11-19T04:39:27;99449.34;;;1.54;100.00
75681;BME280;64294;49.176;16.626;2023-11-19T04:41:52;99451.16;;;1.57;100.00
75681;BME280;64294;49.176;16.626;2023-11-19T04:44:21;99447.56;;;1.42;100.00
75681;BME280;64294;49.176;16.626;2023-11-19T04:46:46;99443.75;;;1.39;100.00
75681;BME280;64294;49.176;16.626;2023-11-19T04:49:13;99448.16;;;1.22;100.00
75681;BME280;64294;49.176;16.626;2023-11-19T04:51:42;99441.66;;;1.25;100.00
75681;BME280;64294;49.176;16.626;2023-11-19T04:54:10;99436.78;;;1.20;100.00
75681;BME280;64294;49.176;16.626;2023-11-19T04:56:37;99426.69;;;1.08;100.00
75681;BME280;64294;49.176;16.626;2023-11-19T04:59:02;99424.66;;;0.84;100.00
75681;BME280;64294;49.176;16.626;2023-11-19T05:01:28;99413.78;;;0.81;100.00
75681;BME280;64294;49.176;16.626;2023-11-19T05:03:53;99422.91;;;0.63;100.00
75681;BME280;64294;49.176;16.626;2023-11-19T05:06:19;99417.97;;;0.67;100.00
75681;BME280;64294;49.176;16.626;2023-11-19T05:08:45;99410.19;;;0.56;100.00
75681;BME280;64294;49.176;16.626;2023-11-19T05:11:11;99415.72;;;0.56;100.00
75681;BME280;64294;49.176;16.626;2023-11-19T05:13:38;99412.22;;;0.47;100.00
75681;BME280;64294;49.176;16.626;2023-11-19T05:16:04;99404.56;;;0.42;100.00
75681;BME280;64294;49.176;16.626;2023-11-19T05:18:30;99401.78;;;0.42;100.00
75681;BME280;64294;49.176;16.626;2023-11-19T05:20:55;99400.84;;;0.45;100.00
75681;BME280;64294;49.176;16.626;2023-11-19T05:23:20;99405.16;;;0.46;100.00
75681;BME280;64294;49.176;16.626;2023-11-19T05:25:46;99398.91;;;0.27;100.00
75681;BME280;64294;49.176;16.626;2023-11-19T05:28:12;99396.28;;;0.33;100.00
75681;BME280;64294;49.176;16.626;2023-11-19T05:30:39;99392.56;;;0.36;100.00
75681;BME280;64294;49.176;16.626;2023-11-19T05:33:05;99379.88;;;0.29;100.00
75681;BME280;64294;49.176;16.626;2023-11-19T05:35:31;99386.78;;;0.24;100.00
75681;BME280;64294;49.176;16.626;2023-11-19T05:37:57;99377.88;;;0.29;100.00
75681;BME280;64294;49.176;16.626;2023-11-19T05:40:23;99375.69;;;0.34;100.00
75681;BME280;64294;49.176;16.626;2023-11-19T05:42:48;99374.81;;;0.27;100.00
75681;BME280;64294;49.176;16.626;2023-11-19T05:45:14;99367.09;;;0.32;100.00
75681;BME280;64294;49.176;16.626;2023-11-19T05:47:40;99346.28;;;0.21;100.00
75681;BME280;64294;49.176;16.626;2023-11-19T05:50:06;99339.22;;;0.20;100.00
75681;BME280;64294;49.176;16.626;2023-11-19T05:52:32;99326.19;;;0.12;100.00
75681;BME280;64294;49.176;16.626;2023-11-19T05:55:01;99322.06;;;-0.02;100.00
75681;BME280;64294;49.176;16.626;2023-11-19T05:57:31;99321.66;;;-0.19;100.00
75681;BME280;64294;49.176;16.626;2023-11-19T05:59:56;99313.53;;;-0.13;100.00
75681;BME280;64294;49.176;16.626;2023-11-19T06:02:23;99319.00;;;-0.04;100.00
75681;BME280;64294;49.176;16.626;2023-11-19T06:04:49;99321.81;;;-0.13;100.00
75681;BME280;64294;49.176;16.626;2023-11-19T06:07:14;99309.06;;;-0.20;100.00
75681;BME280;64294;49.176;16.626;2023-11-19T06:09:40;99317.34;;;-0.11;100.00
75681;BME280;64294;49.176;16.626;2023-11-19T06:12:06;99319.50;;;-0.15;100.00
75681;BME280;64294;49.176;16.626;2023-11-19T06:14:32;99321.81;;;-0.13;100.00
75681;BME280;64294;49.176;16.626;2023-11-19T06:16:58;99315.81;;;-0.21;100.00
75681;BME280;64294;49.176;16.626;2023-11-19T06:19:23;99309.69;;;-0.16;100.00
75681;BME280;64294;49.176;16.626;2023-11-19T06:21:50;99307.31;;;0.10;100.00
75681;BME280;64294;49.176;16.626;2023-11-19T06:24:15;99317.28;;;0.08;100.00
75681;BME280;64294;49.176;16.626;2023-11-19T06:26:41;99292.84;;;0.15;100.00
75681;BME280;64294;49.176;16.626;2023-11-19T06:29:06;99272.91;;;0.11;100.00
75681;BME280;64294;49.176;16.626;2023-11-19T06:31:31;99251.47;;;-0.03;100.00
75681;BME280;64294;49.176;16.626;2023-11-19T06:33:57;99255.47;;;-0.04;100.00
75681;BME280;64294;49.176;16.626;2023-11-19T06:36:22;99258.97;;;0.06;100.00
75681;BME280;64294;49.176;16.626;2023-11-19T06:38:48;99265.28;;;-0.03;100.00
75681;BME280;64294;49.176;16.626;2023-11-19T06:41:13;99252.38;;;0.03;100.00
75681;BME280;64294;49.176;16.626;2023-11-19T06:43:39;99246.56;;;0.01;100.00
75681;BME280;64294;49.176;16.626;2023-11-19T06:46:04;99244.72;;;-0.02;100.00
75681;BME280;64294;49.176;16.626;2023-11-19T06:48:34;99249.75;;;0.09;100.00
75681;BME280;64294;49.176;16.626;2023-11-19T06:51:00;99258.97;;;0.06;100.00
75681;BME280;64294;49.176;16.626;2023-11-19T06:53:25;99247.84;;;0.15;100.00
75681;BME280;64294;49.176;16.626;2023-11-19T06:55:53;99252.00;;;0.19;100.00
75681;BME280;64294;49.176;16.626;2023-11-19T06:58:19;99247.69;;;0.18;100.00
75681;BME280;64294;49.176;16.626;2023-11-19T07:00:44;99245.84;;;0.24;100.00
75681;BME280;64294;49.176;16.626;2023-11-19T07:03:11;99245.66;;;0.28;100.00
75681;BME280;64294;49.176;16.626;2023-11-19T07:05:36;99248.81;;;0.36;100.00
75681;BME280;64294;49.176;16.626;2023-11-19T07:08:05;99237.00;;;0.35;100.00
75681;BME280;64294;49.176;16.626;2023-11-19T07:10:32;99239.19;;;0.31;100.00
75681;BME280;64294;49.176;16.626;2023-11-19T07:12:57;99243.34;;;0.26;100.00
75681;BME280;64294;49.176;16.626;2023-11-19T07:15:23;99241.34;;;0.27;100.00
75681;BME280;64294;49.176;16.626;2023-11-19T07:17:48;99247.66;;;0.27;100.00
75681;BME280;64294;49.176;16.626;2023-11-19T07:20:14;99260.81;;;0.33;100.00
75681;BME280;64294;49.176;16.626;2023-11-19T07:22:42;99268.94;;;0.36;100.00
75681;BME280;64294;49.176;16.626;2023-11-19T07:25:08;99261.38;;;0.46;100.00
75681;BME280;64294;49.176;16.626;2023-11-19T07:27:33;99277.19;;;0.45;100.00
75681;BME280;64294;49.176;16.626;2023-11-19T07:29:59;99272.13;;;0.44;100.00
75681;BME280;64294;49.176;16.626;2023-11-19T07:32:24;99275.19;;;0.46;100.00
75681;BME280;64294;49.176;16.626;2023-11-19T07:34:50;99266.53;;;0.53;100.00
75681;BME280;64294;49.176;16.626;2023-11-19T07:37:15;99264.84;;;0.55;100.00
75681;BME280;64294;49.176;16.626;2023-11-19T07:39:42;99253.94;;;0.52;100.00
75681;BME280;64294;49.176;16.626;2023-11-19T07:42:07;99245.63;;;0.61;100.00
75681;BME280;64294;49.176;16.626;2023-11-19T07:44:34;99238.19;;;0.67;100.00
75681;BME280;64294;49.176;16.626;2023-11-19T07:46:59;99224.06;;;0.65;100.00
75681;BME280;64294;49.176;16.626;2023-11-19T07:49:25;99230.84;;;0.64;100.00
75681;BME280;64294;49.176;16.626;2023-11-19T07:51:54;99230.47;;;0.71;100.00
75681;BME280;64294;49.176;16.626;2023-11-19T07:54:19;99244.00;;;0.69;100.00
75681;BME280;64294;49.176;16.626;2023-11-19T07:56:46;99240.59;;;0.74;100.00
75681;BME280;64294;49.176;16.626;2023-11-19T07:59:12;99241.53;;;0.71;100.00
75681;BME280;64294;49.176;16.626;2023-11-19T08:01:37;99240.66;;;0.65;100.00
75681;BME280;64294;49.176;16.626;2023-11-19T08:04:03;99228.44;;;0.57;100.00
75681;BME280;64294;49.176;16.626;2023-11-19T08:06:28;99214.91;;;0.59;100.00
75681;BME280;64294;49.176;16.626;2023-11-19T08:08:54;99220.16;;;0.57;100.00
75681;BME280;64294;49.176;16.626;2023-11-19T08:11:19;99222.53;;;0.64;100.00
75681;BME280;64294;49.176;16.626;2023-11-19T08:13:45;99212.06;;;0.68;100.00
75681;BME280;64294;49.176;16.626;2023-11-19T08:16:10;99201.63;;;0.87;100.00
75681;BME280;64294;49.176;16.626;2023-11-19T08:18:36;99201.28;;;0.70;100.00
75681;BME280;64294;49.176;16.626;2023-11-19T08:21:01;99198.09;;;0.86;100.00
75681;BME280;64294;49.176;16.626;2023-11-19T08:23:30;99215.53;;;0.93;100.00
75681;BME280;64294;49.176;16.626;2023-11-19T08:25:55;99218.78;;;0.91;100.00
75681;BME280;64294;49.176;16.626;2023-11-19T08:28:20;99214.78;;;0.92;100.00
75681;BME280;64294;49.176;16.626;2023-11-19T08:30:46;99215.72;;;0.89;100.00
75681;BME280;64294;49.176;16.626;2023-11-19T08:33:12;99217.44;;;0.86;100.00
75681;BME280;64294;49.176;16.626;2023-11-19T08:35:37;99207.56;;;0.95;100.00
75681;BME280;64294;49.176;16.626;2023-11-19T08:38:02;99207.72;;;0.91;100.00
75681;BME280;64294;49.176;16.626;2023-11-19T08:40:28;99192.34;;;0.90;100.00
75681;BME280;64294;49.176;16.626;2023-11-19T08:42:55;99179.69;;;0.98;100.00
75681;BME280;64294;49.176;16.626;2023-11-19T08:45:21;99194.56;;;0.86;100.00
75681;BME280;64294;49.176;16.626;2023-11-19T08:47:46;99193.34;;;1.02;100.00
75681;BME280;64294;49.176;16.626;2023-11-19T08:50:12;99178.34;;;1.08;100.00
75681;BME280;64294;49.176;16.626;2023-11-19T08:52:37;99181.41;;;0.96;100.00
75681;BME280;64294;49.176;16.626;2023-11-19T08:55:03;99176.06;;;1.07;100.00
75681;BME280;64294;49.176;16.626;2023-11-19T08:57:31;99180.25;;;0.87;100.00
75681;BME280;64294;49.176;16.626;2023-11-19T08:59:56;99185.81;;;1.02;100.00
75681;BME280;64294;49.176;16.626;2023-11-19T09:02:22;99175.72;;;1.14;100.00
75681;BME280;64294;49.176;16.626;2023-11-19T09:04:48;99179.91;;;1.24;100.00
75681;BME280;64294;49.176;16.626;2023-11-19T09:07:13;99184.75;;;1.29;100.00
75681;BME280;64294;49.176;16.626;2023-11-19T09:09:39;99181.53;;;1.16;100.00
75681;BME280;64294;49.176;16.626;2023-11-19T09:12:04;99173.41;;;1.12;100.00
75681;BME280;64294;49.176;16.626;2023-11-19T09:14:30;99182.38;;;1.22;100.00
75681;BME280;64294;49.176;16.626;2023-11-19T09:16:56;99192.72;;;1.36;100.00
75681;BME280;64294;49.176;16.626;2023-11-19T09:19:21;99178.88;;;1.36;100.00
75681;BME280;64294;49.176;16.626;2023-11-19T09:21:47;99173.59;;;1.24;100.00
75681;BME280;64294;49.176;16.626;2023-11-19T09:24:13;99179.16;;;1.38;100.00
75681;BME280;64294;49.176;16.626;2023-11-19T09:26:38;99177.97;;;1.45;100.00
75681;BME280;64294;49.176;16.626;2023-11-19T09:29:09;99171.88;;;1.56;100.00
75681;BME280;64294;49.176;16.626;2023-11-19T09:31:34;99160.78;;;1.56;100.00
75681;BME280;64294;49.176;16.626;2023-11-19T09:34:01;99171.78;;;1.50;100.00
75681;BME280;64294;49.176;16.626;2023-11-19T09:36:26;99179.91;;;1.39;100.00
75681;BME280;64294;49.176;16.626;2023-11-19T09:38:51;99172.66;;;1.41;100.00
75681;BME280;64294;49.176;16.626;2023-11-19T09:41:18;99165.19;;;1.47;100.00
75681;BME280;64294;49.176;16.626;2023-11-19T09:43:47;99161.06;;;1.58;100.00
75681;BME280;64294;49.176;16.626;2023-11-19T09:46:13;99153.03;;;1.60;100.00
75681;BME280;64294;49.176;16.626;2023-11-19T09:48:40;99136.56;;;1.50;100.00
75681;BME280;64294;49.176;16.626;2023-11-19T09:51:09;99139.75;;;1.64;100.00
75681;BME280;64294;49.176;16.626;2023-11-19T09:53:36;99131.06;;;1.71;100.00
75681;BME280;64294;49.176;16.626;2023-11-19T09:56:05;99122.06;;;1.76;100.00
75681;BME280;64294;49.176;16.626;2023-11-19T09:58:32;99113.41;;;1.68;100.00
75681;BME280;64294;49.176;16.626;2023-11-19T10:00:58;99104.16;;;1.57;100.00
75681;BME280;64294;49.176;16.626;2023-11-19T10:03:25;99098.91;;;1.59;100.00
75681;BME280;64294;49.176;16.626;2023-11-19T10:05:52;99097.34;;;1.72;100.00
75681;BME280;64294;49.176;16.626;2023-11-19T10:08:19;99090.63;;;1.79;100.00
75681;BME280;64294;49.176;16.626;2023-11-19T10:10:44;99084.31;;;1.78;100.00
75681;BME280;64294;49.176;16.626;2023-11-19T10:13:10;99086.66;;;1.86;100.00
75681;BME280;64294;49.176;16.626;2023-11-19T10:15:37;99082.25;;;1.94;100.00
75681;BME280;64294;49.176;16.626;2023-11-19T10:18:03;99086.91;;;2.02;100.00
75681;BME280;64294;49.176;16.626;2023-11-19T10:20:35;99081.06;;;1.80;100.00
75681;BME280;64294;49.176;16.626;2023-11-19T10:23:02;99077.91;;;1.87;100.00
75681;BME280;64294;49.176;16.626;2023-11-19T10:25:28;99072.00;;;1.79;100.00
75681;BME280;64294;49.176;16.626;2023-11-19T10:27:55;99063.56;;;1.89;100.00
75681;BME280;64294;49.176;16.626;2023-11-19T10:30:28;99061.94;;;1.82;100.00
75681;BME280;64294;49.176;16.626;2023-11-19T10:33:12;99046.34;;;1.85;100.00
75681;BME280;64294;49.176;16.626;2023-11-19T10:35:58;99052.81;;;1.76;100.00
75681;BME280;64294;49.176;16.626;2023-11-19T10:38:25;99044.44;;;1.70;100.00
75681;BME280;64294;49.176;16.626;2023-11-19T10:40:51;99035.63;;;1.72;100.00
75681;BME280;64294;49.176;16.626;2023-11-19T10:43:20;99032.22;;;1.62;100.00
75681;BME280;64294;49.176;16.626;2023-11-19T10:45:50;99023.56;;;1.75;100.00
75681;BME280;64294;49.176;16.626;2023-11-19T10:48:15;99000.97;;;1.82;100.00
75681;BME280;64294;49.176;16.626;2023-11-19T10:50:43;98996.84;;;1.92;100.00
75681;BME280;64294;49.176;16.626;2023-11-19T10:53:11;99005.97;;;1.98;100.00
75681;BME280;64294;49.176;16.626;2023-11-19T10:55:38;99004.09;;;2.10;100.00
75681;BME280;64294;49.176;16.626;2023-11-19T10:58:06;98999.59;;;2.12;100.00
75681;BME280;64294;49.176;16.626;2023-11-19T11:03:24;98997.31;;;2.37;100.00
75681;BME280;64294;49.176;16.626;2023-11-19T11:05:51;98984.88;;;2.27;100.00
75681;BME280;64294;49.176;16.626;2023-11-19T11:08:17;99000.63;;;2.41;100.00
75681;BME280;64294;49.176;16.626;2023-11-19T11:10:45;98996.19;;;2.49;100.00
75681;BME280;64294;49.176;16.626;2023-11-19T11:13:11;98997.16;;;2.46;100.00
75681;BME280;64294;49.176;16.626;2023-11-19T11:15:38;98987.38;;;2.51;100.00
75681;BME280;64294;49.176;16.626;2023-11-19T11:18:08;98981.50;;;2.43;100.00
75681;BME280;64294;49.176;16.626;2023-11-19T11:20:34;98975.00;;;2.52;100.00
75681;BME280;64294;49.176;16.626;2023-11-19T11:28:34;98987.69;;;2.58;100.00
75681;BME280;64294;49.176;16.626;2023-11-19T11:36:20;99013.66;;;2.87;100.00
75681;BME280;64294;49.176;16.626;2023-11-19T11:38:48;99007.47;;;2.71;100.00
75681;BME280;64294;49.176;16.626;2023-11-19T11:41:20;99000.41;;;2.70;100.00
75681;BME280;64294;49.176;16.626;2023-11-19T11:43:53;99001.88;;;2.66;100.00
75681;BME280;64294;49.176;16.626;2023-11-19T11:49:00;99000.59;;;2.93;100.00
75681;BME280;64294;49.176;16.626;2023-11-19T11:54:11;99011.69;;;2.93;100.00
75681;BME280;64294;49.176;16.626;2023-11-19T11:56:37;98998.34;;;2.97;100.00
75681;BME280;64294;49.176;16.626;2023-11-19T11:59:07;98986.78;;;2.98;100.00
75681;BME280;64294;49.176;16.626;2023-11-19T12:01:32;98985.81;;;3.07;100.00
75681;BME280;64294;49.176;16.626;2023-11-19T12:03:58;98990.91;;;3.14;100.00
75681;BME280;64294;49.176;16.626;2023-11-19T12:06:23;98975.50;;;3.13;100.00
75681;BME280;64294;49.176;16.626;2023-11-19T12:08:49;98983.91;;;3.24;100.00
75681;BME280;64294;49.176;16.626;2023-11-19T12:11:16;98994.75;;;3.22;100.00
75681;BME280;64294;49.176;16.626;2023-11-19T12:13:55;98993.69;;;3.14;100.00
75681;BME280;64294;49.176;16.626;2023-11-19T12:16:27;98980.34;;;3.18;100.00
75681;BME280;64294;49.176;16.626;2023-11-19T12:18:54;98970.25;;;3.21;100.00
75681;BME280;64294;49.176;16.626;2023-11-19T12:21:30;98970.31;;;3.32;100.00
75681;BME280;64294;49.176;16.626;2023-11-19T12:23:58;98980.91;;;3.33;100.00
75681;BME280;64294;49.176;16.626;2023-11-19T12:26:35;98974.06;;;3.23;100.00
75681;BME280;64294;49.176;16.626;2023-11-19T12:29:01;98970.81;;;3.30;100.00
75681;BME280;64294;49.176;16.626;2023-11-19T12:31:29;98961.88;;;3.15;100.00
75681;BME280;64294;49.176;16.626;2023-11-19T12:33:54;98957.06;;;3.16;100.00
75681;BME280;64294;49.176;16.626;2023-11-19T12:36:20;98953.00;;;3.11;100.00
75681;BME280;64294;49.176;16.626;2023-11-19T12:38:45;98956.78;;;3.08;100.00
75681;BME280;64294;49.176;16.626;2023-11-19T12:41:11;98945.44;;;3.12;100.00
75681;BME280;64294;49.176;16.626;2023-11-19T12:43:38;98947.81;;;3.30;100.00
75681;BME280;64294;49.176;16.626;2023-11-19T12:46:22;98940.84;;;3.46;100.00
75681;BME280;64294;49.176;16.626;2023-11-19T12:48:49;98955.50;;;3.52;100.00
75681;BME280;64294;49.176;16.626;2023-11-19T12:51:14;98962.41;;;3.68;100.00
75681;BME280;64294;49.176;16.626;2023-11-19T12:53:52;98950.03;;;3.63;100.00
75681;BME280;64294;49.176;16.626;2023-11-19T12:56:23;98946.41;;;3.46;100.00
75681;BME280;64294;49.176;16.626;2023-11-19T12:58:49;98936.03;;;3.46;100.00
75681;BME280;64294;49.176;16.626;2023-11-19T13:01:19;98938.22;;;3.25;100.00
75681;BME280;64294;49.176;16.626;2023-11-19T13:03:46;98943.78;;;3.25;100.00
75681;BME280;64294;49.176;16.626;2023-11-19T13:06:13;98940.25;;;3.30;100.00
75681;BME280;64294;49.176;16.626;2023-11-19T13:08:45;98938.22;;;3.25;100.00